createdAt,value
2022-10-22T00:01:39.371Z,15.75
2022-10-22T00:04:05.877Z,15.90
2022-10-22T00:06:32.342Z,15.65
2022-10-22T00:08:58.941Z,15.55
2022-10-22T00:11:25.750Z,15.53
2022-10-22T00:13:52.177Z,15.67
2022-10-22T00:16:18.706Z,15.76
2022-10-22T00:18:46.846Z,15.63
2022-10-22T00:21:13.368Z,15.66
2022-10-22T00:23:40.893Z,15.91
2022-10-22T00:26:07.305Z,15.75
2022-10-22T00:28:33.863Z,15.76
2022-10-22T00:31:01.198Z,15.58
2022-10-22T00:33:28.920Z,15.61
2022-10-22T00:35:56.945Z,15.82
2022-10-22T00:38:23.719Z,15.83
2022-10-22T00:40:50.433Z,15.79
2022-10-22T00:43:18.902Z,15.71
2022-10-22T00:45:45.947Z,15.69
2022-10-22T00:48:15.990Z,15.63
2022-10-22T00:50:47.130Z,15.70
2022-10-22T00:53:17.337Z,15.77
2022-10-22T00:55:47.553Z,15.97
2022-10-22T00:58:14.846Z,15.71
2022-10-22T01:00:41.942Z,15.77
2022-10-22T01:03:08.394Z,15.65
2022-10-22T01:05:41.068Z,15.59
2022-10-22T01:10:54.488Z,15.79
2022-10-22T01:13:32.756Z,15.64
2022-10-22T01:16:08.578Z,15.49
2022-10-22T01:18:42.745Z,15.75
2022-10-22T01:21:18.561Z,15.54
2022-10-22T01:24:21.560Z,15.63
2022-10-22T01:27:02.643Z,15.32
2022-10-22T01:29:37.156Z,15.61
2022-10-22T01:32:09.592Z,15.54
2022-10-22T01:34:40.298Z,15.58
2022-10-22T01:37:08.315Z,15.12
2022-10-22T01:39:36.672Z,15.58
2022-10-22T01:42:03.252Z,15.57
2022-10-22T01:44:33.226Z,15.50
2022-10-22T01:47:13.979Z,15.28
2022-10-22T01:50:00.861Z,15.66
2022-10-22T01:52:36.991Z,15.66
2022-10-22T01:55:14.702Z,15.74
2022-10-22T01:57:47.313Z,15.74
2022-10-22T02:00:18.872Z,15.68
2022-10-22T02:02:54.184Z,15.58
2022-10-22T02:05:24.915Z,15.54
2022-10-22T02:07:55.564Z,15.72
2022-10-22T02:10:23.515Z,15.60
2022-10-22T02:12:53.898Z,15.16
2022-10-22T02:15:25.408Z,15.63
2022-10-22T02:17:53.334Z,15.57
2022-10-22T02:20:25.827Z,15.51
2022-10-22T02:22:52.528Z,15.38
2022-10-22T02:25:21.999Z,15.58
2022-10-22T02:27:54.627Z,15.42
2022-10-22T02:30:23.339Z,15.39
2022-10-22T02:32:55.411Z,15.70
2022-10-22T02:35:24.308Z,15.61
2022-10-22T02:37:52.638Z,15.81
2022-10-22T02:40:20.024Z,15.68
2022-10-22T02:42:48.188Z,16.02
2022-10-22T02:45:15.065Z,15.80
2022-10-22T02:47:42.857Z,15.82
2022-10-22T02:50:10.371Z,15.69
2022-10-22T02:52:37.405Z,15.42
2022-10-22T02:55:05.843Z,15.70
2022-10-22T02:57:32.645Z,15.64
2022-10-22T02:59:59.138Z,15.71
2022-10-22T03:02:25.532Z,15.61
2022-10-22T03:04:53.296Z,15.49
2022-10-22T03:07:19.788Z,15.72
2022-10-22T03:09:46.257Z,15.81
2022-10-22T03:12:12.973Z,15.78
2022-10-22T03:14:39.384Z,15.87
2022-10-22T03:17:05.826Z,15.71
2022-10-22T03:19:32.319Z,15.60
2022-10-22T03:22:02.258Z,15.65
2022-10-22T03:24:33.304Z,15.47
2022-10-22T03:26:59.737Z,15.72
2022-10-22T03:29:27.630Z,15.82
2022-10-22T03:31:54.781Z,15.70
2022-10-22T03:34:21.639Z,15.75
2022-10-22T03:36:48.973Z,15.63
2022-10-22T03:39:18.388Z,15.68
2022-10-22T03:41:46.041Z,15.65
2022-10-22T03:44:12.800Z,15.67
2022-10-22T03:46:39.235Z,15.59
2022-10-22T03:49:05.638Z,15.67
2022-10-22T03:51:32.556Z,15.78
2022-10-22T03:53:59.097Z,15.68
2022-10-22T03:56:26.936Z,15.67
2022-10-22T03:58:56.144Z,15.51
2022-10-22T04:01:22.989Z,15.57
2022-10-22T04:03:49.484Z,15.12
2022-10-22T04:06:16.283Z,15.25
2022-10-22T04:08:45.047Z,15.25
2022-10-22T04:11:12.960Z,15.09
2022-10-22T04:13:41.154Z,15.33
2022-10-22T04:16:09.781Z,15.56
2022-10-22T04:18:36.276Z,15.59
2022-10-22T04:21:02.940Z,15.58
2022-10-22T04:23:29.434Z,15.58
2022-10-22T04:25:57.955Z,15.44
2022-10-22T04:28:24.457Z,15.48
2022-10-22T04:30:52.290Z,15.61
2022-10-22T04:33:19.157Z,15.14
2022-10-22T04:35:45.573Z,15.42
2022-10-22T04:38:13.620Z,15.39
2022-10-22T04:40:40.050Z,15.42
2022-10-22T04:43:06.478Z,15.27
2022-10-22T04:45:33.447Z,15.76
2022-10-22T04:48:01.292Z,15.25
2022-10-22T04:50:27.991Z,14.81
2022-10-22T04:52:54.421Z,15.34
2022-10-22T04:55:21.112Z,15.21
2022-10-22T04:57:47.676Z,15.15
2022-10-22T05:00:14.477Z,15.55
2022-10-22T05:02:40.895Z,15.63
2022-10-22T05:05:09.052Z,15.68
2022-10-22T05:07:35.493Z,15.74
2022-10-22T05:10:01.916Z,15.72
2022-10-22T05:12:28.339Z,15.70
2022-10-22T05:14:54.833Z,15.08
2022-10-22T05:17:21.285Z,15.16
2022-10-22T05:19:47.684Z,15.41
2022-10-22T05:22:15.487Z,15.31
2022-10-22T05:24:41.871Z,15.56
2022-10-22T05:27:08.358Z,15.44
2022-10-22T05:29:35.447Z,15.53
2022-10-22T05:32:01.916Z,15.43
2022-10-22T05:34:28.320Z,15.46
2022-10-22T05:36:54.802Z,15.68
2022-10-22T05:39:22.539Z,15.70
2022-10-22T05:41:48.950Z,15.65
2022-10-22T05:44:15.705Z,15.47
2022-10-22T05:46:42.119Z,15.66
2022-10-22T05:49:12.691Z,15.39
2022-10-22T05:51:39.189Z,15.09
2022-10-22T05:54:07.442Z,15.33
2022-10-22T05:56:35.628Z,15.39
2022-10-22T06:01:31.194Z,15.44
2022-10-22T06:03:59.401Z,15.21
2022-10-22T06:06:30.408Z,15.05
2022-10-22T06:09:00.938Z,14.86
2022-10-22T06:11:29.913Z,15.36
2022-10-22T06:14:00.439Z,15.44
2022-10-22T06:16:28.930Z,15.50
2022-10-22T06:18:55.340Z,15.25
2022-10-22T06:21:21.792Z,15.36
2022-10-22T06:23:48.256Z,15.47
2022-10-22T06:26:14.656Z,15.46
2022-10-22T06:28:41.232Z,15.53
2022-10-22T06:31:09.667Z,15.30
2022-10-22T06:33:36.174Z,15.53
2022-10-22T06:36:07.732Z,15.27
2022-10-22T06:38:34.494Z,15.55
2022-10-22T06:41:02.975Z,15.38
2022-10-22T06:43:29.402Z,15.63
2022-10-22T06:45:59.027Z,15.68
2022-10-22T06:48:26.820Z,15.53
2022-10-22T06:50:53.280Z,15.73
2022-10-22T06:55:47.336Z,15.65
2022-10-22T06:58:13.920Z,15.69
2022-10-22T07:00:40.508Z,15.73
2022-10-22T07:03:06.946Z,15.24
2022-10-22T07:05:34.964Z,15.56
2022-10-22T07:08:01.358Z,15.01
2022-10-22T07:10:30.011Z,15.39
2022-10-22T07:12:57.847Z,15.58
2022-10-22T07:15:24.333Z,14.81
2022-10-22T07:17:50.840Z,15.39
2022-10-22T07:20:17.396Z,16.11
2022-10-22T07:22:45.188Z,16.16
2022-10-22T07:25:11.595Z,16.30
2022-10-22T07:27:38.256Z,15.73
2022-10-22T07:30:06.051Z,15.44
2022-10-22T07:32:32.468Z,15.89
2022-10-22T07:34:59.113Z,15.82
2022-10-22T07:37:25.511Z,15.41
2022-10-22T07:39:53.282Z,15.67
2022-10-22T07:42:19.741Z,15.51
2022-10-22T07:44:46.198Z,15.31
2022-10-22T07:47:12.607Z,15.71
2022-10-22T07:49:39.099Z,15.57
2022-10-22T07:52:06.773Z,15.58
2022-10-22T07:54:33.237Z,15.78
2022-10-22T07:57:01.286Z,15.28
2022-10-22T07:59:27.751Z,15.62
2022-10-22T08:01:54.167Z,15.05
2022-10-22T08:04:20.645Z,15.22
2022-10-22T08:06:47.370Z,15.34
2022-10-22T08:09:14.612Z,15.54
2022-10-22T08:11:41.081Z,15.31
2022-10-22T08:14:08.875Z,15.53
2022-10-22T08:16:35.404Z,15.82
2022-10-22T08:19:01.884Z,16.17
2022-10-22T08:21:28.319Z,15.96
2022-10-22T08:23:54.836Z,16.14
2022-10-22T08:26:21.292Z,16.04
2022-10-22T08:28:47.737Z,15.86
2022-10-22T08:31:15.806Z,16.02
2022-10-22T08:33:42.267Z,15.88
2022-10-22T08:36:09.475Z,16.07
2022-10-22T08:38:36.017Z,16.70
2022-10-22T08:41:10.110Z,16.32
2022-10-22T08:44:11.776Z,16.45
2022-10-22T08:46:55.915Z,16.07
2022-10-22T08:49:26.094Z,16.27
2022-10-22T08:51:53.209Z,16.39
2022-10-22T08:54:27.438Z,16.52
2022-10-22T08:57:06.346Z,16.34
2022-10-22T08:59:41.276Z,16.75
2022-10-22T09:02:30.147Z,16.74
2022-10-22T09:05:10.043Z,16.59
2022-10-22T09:07:41.777Z,16.54
2022-10-22T09:10:11.280Z,16.71
2022-10-22T09:12:37.829Z,16.57
2022-10-22T09:15:04.698Z,16.79
2022-10-22T09:17:38.587Z,16.72
2022-10-22T09:20:14.468Z,16.73
2022-10-22T09:22:48.703Z,17.00
2022-10-22T09:25:20.139Z,17.30
2022-10-22T09:27:47.049Z,16.90
2022-10-22T09:30:17.501Z,16.85
2022-10-22T09:32:45.615Z,16.92
2022-10-22T09:35:14.420Z,17.58
2022-10-22T09:37:49.488Z,17.81
2022-10-22T09:40:16.907Z,17.29
2022-10-22T09:42:45.076Z,17.32
2022-10-22T09:45:21.539Z,17.55
2022-10-22T09:48:01.541Z,17.38
2022-10-22T09:50:38.330Z,17.88
2022-10-22T09:53:11.566Z,17.56
2022-10-22T09:55:38.407Z,17.69
2022-10-22T09:58:04.838Z,17.64
2022-10-22T10:00:31.512Z,18.10
2022-10-22T10:03:00.352Z,17.83
2022-10-22T10:05:30.323Z,17.32
2022-10-22T10:07:57.071Z,18.03
2022-10-22T10:10:34.920Z,18.11
2022-10-22T10:13:17.697Z,17.79
2022-10-22T10:15:54.300Z,18.21
2022-10-22T10:18:39.380Z,18.28
2022-10-22T10:23:51.664Z,17.90
2022-10-22T10:26:24.115Z,18.28
2022-10-22T10:29:00.318Z,18.06
2022-10-22T10:31:38.971Z,18.66
2022-10-22T10:34:17.679Z,18.53
2022-10-22T10:36:51.941Z,18.99
2022-10-22T10:39:27.954Z,18.69
2022-10-22T10:42:01.490Z,18.41
2022-10-22T10:44:46.682Z,18.27
2022-10-22T10:47:30.911Z,18.42
2022-10-22T10:50:12.704Z,18.72
2022-10-22T10:52:45.004Z,19.07
2022-10-22T10:55:18.936Z,18.54
2022-10-22T10:57:56.526Z,19.26
2022-10-22T11:00:23.799Z,18.35
2022-10-22T11:03:32.125Z,19.28
2022-10-22T11:06:02.780Z,19.29
2022-10-22T11:08:32.707Z,19.17
2022-10-22T11:11:03.089Z,18.95
2022-10-22T11:13:34.474Z,19.07
2022-10-22T11:16:05.331Z,18.78
2022-10-22T11:18:37.238Z,18.86
2022-10-22T11:21:13.660Z,19.76
2022-10-22T11:23:45.284Z,19.72
2022-10-22T11:26:17.455Z,19.81
2022-10-22T11:28:48.753Z,19.40
2022-10-22T11:31:17.740Z,19.82
2022-10-22T11:33:57.168Z,19.66
2022-10-22T11:39:03.005Z,19.25
2022-10-22T11:41:32.090Z,20.20
2022-10-22T11:44:08.416Z,20.52
2022-10-22T11:46:43.133Z,19.80
2022-10-22T11:49:19.443Z,20.18
2022-10-22T11:51:47.717Z,20.40
2022-10-22T11:54:37.973Z,20.02
2022-10-22T11:57:19.114Z,19.93
2022-10-22T11:59:50.235Z,19.97
2022-10-22T12:02:38.757Z,19.52
2022-10-22T12:05:36.024Z,19.55
2022-10-22T12:08:23.934Z,19.49
2022-10-22T12:11:02.747Z,19.39
2022-10-22T12:13:32.061Z,20.01
2022-10-22T12:16:02.297Z,19.91
2022-10-22T12:18:35.224Z,20.15
2022-10-22T12:21:01.673Z,19.90
2022-10-22T12:23:33.988Z,20.12
2022-10-22T12:26:00.432Z,20.27
2022-10-22T12:28:26.901Z,19.57
2022-10-22T12:30:53.307Z,20.04
2022-10-22T12:33:21.636Z,19.41
2022-10-22T12:35:50.292Z,19.74
2022-10-22T12:38:18.904Z,19.30
2022-10-22T12:40:48.675Z,19.85
2022-10-22T12:43:18.323Z,19.82
2022-10-22T12:45:46.751Z,19.74
2022-10-22T12:48:18.172Z,19.79
2022-10-22T12:50:47.188Z,20.34
2022-10-22T12:53:15.545Z,20.34
2022-10-22T12:55:42.081Z,20.23
2022-10-22T12:58:17.065Z,19.58
2022-10-22T13:00:46.032Z,19.94
2022-10-22T13:03:25.687Z,20.06
2022-10-22T13:05:52.350Z,20.49
2022-10-22T13:08:22.408Z,19.93
2022-10-22T13:10:50.776Z,20.78
2022-10-22T13:13:32.807Z,20.08
2022-10-22T13:16:13.553Z,20.16
2022-10-22T13:18:40.468Z,19.79
2022-10-22T13:21:22.807Z,19.84
2022-10-22T13:23:52.847Z,19.22
2022-10-22T13:26:19.638Z,19.10
2022-10-22T13:28:53.412Z,19.16
2022-10-22T13:31:23.311Z,18.89
2022-10-22T13:33:53.606Z,18.88
2022-10-22T13:36:20.130Z,19.02
2022-10-22T13:38:46.554Z,18.83
2022-10-22T13:41:23.637Z,19.36
2022-10-22T13:43:52.399Z,19.22
2022-10-22T13:46:19.979Z,19.08
2022-10-22T13:48:47.708Z,19.13
2022-10-22T13:51:16.291Z,19.28
2022-10-22T13:53:44.604Z,19.81
2022-10-22T13:56:14.183Z,19.27
2022-10-22T13:58:40.658Z,19.48
2022-10-22T14:01:19.825Z,19.40
2022-10-22T14:03:47.920Z,19.61
2022-10-22T14:06:16.134Z,19.60
2022-10-22T14:08:44.838Z,19.51
2022-10-22T14:11:12.386Z,18.99
2022-10-22T14:13:39.202Z,18.82
2022-10-22T14:16:07.028Z,19.55
2022-10-22T14:18:35.743Z,19.34
2022-10-22T14:21:05.463Z,19.10
2022-10-22T14:23:32.257Z,18.33
2022-10-22T14:25:59.500Z,18.82
2022-10-22T14:28:25.972Z,19.27
2022-10-22T14:30:52.779Z,19.17
2022-10-22T14:33:24.734Z,19.09
2022-10-22T14:35:55.156Z,19.28
2022-10-22T14:38:22.481Z,19.17
2022-10-22T14:40:49.711Z,18.79
2022-10-22T14:43:20.520Z,18.37
2022-10-22T14:45:46.916Z,18.50
2022-10-22T14:48:13.404Z,18.85
2022-10-22T14:50:39.836Z,18.73
2022-10-22T14:53:07.668Z,18.83
2022-10-22T14:55:34.178Z,18.73
2022-10-22T14:58:00.602Z,18.68
2022-10-22T15:00:27.153Z,19.03
2022-10-22T15:02:53.596Z,18.97
2022-10-22T15:05:20.054Z,18.93
2022-10-22T15:07:46.490Z,18.89
2022-10-22T15:10:14.461Z,18.49
2022-10-22T15:12:41.031Z,18.71
2022-10-22T15:15:08.172Z,19.01
2022-10-22T15:17:34.763Z,18.94
2022-10-22T15:20:01.223Z,18.76
2022-10-22T15:22:27.612Z,18.43
2022-10-22T15:24:54.240Z,18.73
2022-10-22T15:27:21.982Z,18.37
2022-10-22T15:29:48.447Z,19.03
2022-10-22T15:32:15.043Z,18.84
2022-10-22T15:34:41.440Z,18.75
2022-10-22T15:37:10.270Z,18.94
2022-10-22T15:39:39.436Z,19.01
2022-10-22T15:42:05.997Z,18.95
2022-10-22T15:44:33.886Z,18.95
2022-10-22T15:47:03.188Z,18.63
2022-10-22T15:49:29.970Z,18.55
2022-10-22T15:51:56.375Z,17.60
2022-10-22T15:54:25.247Z,18.39
2022-10-22T15:56:52.087Z,18.50
2022-10-22T15:59:18.640Z,18.79
2022-10-22T16:01:47.092Z,18.77
2022-10-22T16:04:13.902Z,18.73
2022-10-22T16:06:42.878Z,18.64
2022-10-22T16:09:11.178Z,18.59
2022-10-22T16:11:39.139Z,18.29
2022-10-22T16:14:06.117Z,18.69
2022-10-22T16:16:35.051Z,18.37
2022-10-22T16:19:03.502Z,17.91
2022-10-22T16:21:29.892Z,18.28
2022-10-22T16:23:56.286Z,18.56
2022-10-22T16:26:22.761Z,17.98
2022-10-22T16:28:49.262Z,18.46
2022-10-22T16:31:17.836Z,18.24
2022-10-22T16:33:47.810Z,17.98
2022-10-22T16:36:20.213Z,17.62
2022-10-22T16:38:47.988Z,17.75
2022-10-22T16:41:16.183Z,18.39
2022-10-22T16:43:43.745Z,17.76
2022-10-22T16:46:10.202Z,17.98
2022-10-22T16:48:37.543Z,18.06
2022-10-22T16:51:06.572Z,18.41
2022-10-22T16:56:08.653Z,18.00
2022-10-22T16:58:35.063Z,18.04
2022-10-22T17:01:06.065Z,17.39
2022-10-22T17:03:32.520Z,17.98
2022-10-22T17:05:59.296Z,17.27
2022-10-22T17:08:25.712Z,17.16
2022-10-22T17:10:53.457Z,17.80
2022-10-22T17:13:19.934Z,17.84
2022-10-22T17:15:46.412Z,17.79
2022-10-22T17:18:12.858Z,17.40
2022-10-22T17:20:40.989Z,17.63
2022-10-22T17:23:07.491Z,17.26
2022-10-22T17:25:40.868Z,17.31
2022-10-22T17:28:09.020Z,17.57
2022-10-22T17:30:35.449Z,17.67
2022-10-22T17:33:01.892Z,17.09
2022-10-22T17:35:28.416Z,17.27
2022-10-22T17:37:54.834Z,17.74
2022-10-22T17:40:21.752Z,17.33
2022-10-22T17:42:48.649Z,17.54
2022-10-22T17:45:16.443Z,17.73
2022-10-22T17:47:43.126Z,17.58
2022-10-22T17:50:10.036Z,17.30
2022-10-22T17:52:36.471Z,17.15
2022-10-22T17:55:03.105Z,17.50
2022-10-22T17:57:29.536Z,17.48
2022-10-22T17:59:55.963Z,17.96
2022-10-22T18:02:23.794Z,17.67
2022-10-22T18:04:51.190Z,17.78
2022-10-22T18:07:17.795Z,17.62
2022-10-22T18:09:45.195Z,17.71
2022-10-22T18:12:12.567Z,17.59
2022-10-22T18:14:39.862Z,17.33
2022-10-22T18:17:06.498Z,17.42
2022-10-22T18:19:34.302Z,17.39
2022-10-22T18:22:00.743Z,17.39
2022-10-22T18:24:27.410Z,17.36
2022-10-22T18:26:54.017Z,17.55
2022-10-22T18:29:20.560Z,17.29
2022-10-22T18:31:47.882Z,17.35
2022-10-22T18:34:15.129Z,17.58
2022-10-22T18:36:43.456Z,17.38
2022-10-22T18:39:13.486Z,17.30
2022-10-22T18:41:39.925Z,17.49
2022-10-22T18:44:07.182Z,17.37
2022-10-22T18:46:34.937Z,17.57
2022-10-22T18:49:01.652Z,17.43
2022-10-22T18:51:29.562Z,17.20
2022-10-22T18:54:05.338Z,17.37
2022-10-22T18:56:38.812Z,17.48
2022-10-22T18:59:05.327Z,17.66
2022-10-22T19:01:31.740Z,17.25
2022-10-22T19:03:58.165Z,17.41
2022-10-22T19:06:26.738Z,17.40
2022-10-22T19:08:53.190Z,17.37
2022-10-22T19:11:21.241Z,17.38
2022-10-22T19:13:47.696Z,17.42
2022-10-22T19:16:18.221Z,17.27
2022-10-22T19:18:44.617Z,17.33
2022-10-22T19:21:11.444Z,17.14
2022-10-22T19:23:37.903Z,17.10
2022-10-22T19:26:07.182Z,17.11
2022-10-22T19:28:35.921Z,17.41
2022-10-22T19:31:04.844Z,17.13
2022-10-22T19:33:31.251Z,17.21
2022-10-22T19:35:57.663Z,17.36
2022-10-22T19:38:24.097Z,17.41
2022-10-22T19:40:50.505Z,17.33
2022-10-22T19:43:19.010Z,17.51
2022-10-22T19:45:46.935Z,17.36
2022-10-22T19:48:13.342Z,17.37
2022-10-22T19:50:39.758Z,17.44
2022-10-22T19:53:06.160Z,17.59
2022-10-22T19:55:32.752Z,17.26
2022-10-22T19:57:59.212Z,17.03
2022-10-22T20:00:25.649Z,17.06
2022-10-22T20:02:53.387Z,17.30
2022-10-22T20:05:19.868Z,17.19
2022-10-22T20:07:46.343Z,17.23
2022-10-22T20:10:12.760Z,17.15
2022-10-22T20:12:39.203Z,17.34
2022-10-22T20:15:06.828Z,17.07
2022-10-22T20:17:33.249Z,16.78
2022-10-22T20:20:01.231Z,17.43
2022-10-22T20:22:27.767Z,16.96
2022-10-22T20:24:54.278Z,16.95
2022-10-22T20:27:21.066Z,16.91
2022-10-22T20:29:47.547Z,16.91
2022-10-22T20:32:14.088Z,17.00
2022-10-22T20:34:40.604Z,17.03
2022-10-22T20:37:08.451Z,16.56
2022-10-22T20:39:34.882Z,16.61
2022-10-22T20:42:01.467Z,16.90
2022-10-22T20:44:28.218Z,16.62
2022-10-22T20:46:54.673Z,16.71
2022-10-22T20:49:21.123Z,16.42
2022-10-22T20:51:47.685Z,16.97
2022-10-22T20:54:15.821Z,16.71
2022-10-22T20:56:43.217Z,16.96
2022-10-22T20:59:10.608Z,16.46
2022-10-22T21:01:38.949Z,16.44
2022-10-22T21:04:06.126Z,16.89
2022-10-22T21:06:33.020Z,16.38
2022-10-22T21:08:59.703Z,16.36
2022-10-22T21:11:27.504Z,16.50
2022-10-22T21:13:53.997Z,16.36
2022-10-22T21:16:20.385Z,16.31
2022-10-22T21:18:46.932Z,15.93
2022-10-22T21:21:13.378Z,15.65
2022-10-22T21:23:39.932Z,15.52
2022-10-22T21:26:06.681Z,15.41
2022-10-22T21:28:36.192Z,15.24
2022-10-22T21:31:03.036Z,15.00
2022-10-22T21:33:29.611Z,15.04
2022-10-22T21:35:56.947Z,15.66
2022-10-22T21:38:24.790Z,15.40
2022-10-22T21:40:51.342Z,15.60
2022-10-22T21:43:18.064Z,15.56
2022-10-22T21:45:45.782Z,15.46
2022-10-22T21:48:12.945Z,15.47
2022-10-22T21:50:39.987Z,15.38
2022-10-22T21:53:06.466Z,15.54
2022-10-22T21:55:37.853Z,15.51
2022-10-22T21:58:04.256Z,15.59
2022-10-22T22:00:30.681Z,15.47
2022-10-22T22:02:58.519Z,15.63
2022-10-22T22:05:25.038Z,15.50
2022-10-22T22:07:51.959Z,15.58
2022-10-22T22:10:18.525Z,15.70
2022-10-22T22:12:45.060Z,15.61
2022-10-22T22:15:11.592Z,15.57
2022-10-22T22:17:38.046Z,15.27
2022-10-22T22:20:06.894Z,15.33
2022-10-22T22:22:33.312Z,15.43
2022-10-22T22:24:59.713Z,15.11
2022-10-22T22:27:26.217Z,15.47
2022-10-22T22:29:54.057Z,15.22
2022-10-22T22:32:20.616Z,15.36
2022-10-22T22:34:46.984Z,15.14
2022-10-22T22:37:14.806Z,15.16
2022-10-22T22:39:41.500Z,15.22
2022-10-22T22:42:07.887Z,14.93
2022-10-22T22:44:34.279Z,15.11
2022-10-22T22:47:00.659Z,14.63
2022-10-22T22:49:27.048Z,15.04
2022-10-22T22:51:53.464Z,15.37
2022-10-22T22:54:21.252Z,15.16
2022-10-22T22:56:49.865Z,15.15
2022-10-22T22:59:16.265Z,15.04
2022-10-22T23:01:42.738Z,15.30
2022-10-22T23:04:12.071Z,15.13
2022-10-22T23:06:39.153Z,14.19
2022-10-22T23:09:07.349Z,14.41
2022-10-22T23:11:35.542Z,14.82
2022-10-22T23:14:04.310Z,15.14
2022-10-22T23:16:32.666Z,14.92
2022-10-22T23:19:00.429Z,15.12
2022-10-22T23:21:28.642Z,15.04
2022-10-22T23:23:57.554Z,15.09
2022-10-22T23:26:25.860Z,15.18
2022-10-22T23:28:54.390Z,15.02
2022-10-22T23:31:21.541Z,14.99
2022-10-22T23:33:48.468Z,14.90
2022-10-22T23:36:14.873Z,14.79
2022-10-22T23:38:41.734Z,14.96
2022-10-22T23:41:08.787Z,15.04
2022-10-22T23:43:36.227Z,14.95
2022-10-22T23:46:04.939Z,14.95
2022-10-22T23:48:31.400Z,14.85
2022-10-22T23:50:57.855Z,14.89
2022-10-22T23:53:24.316Z,14.87
2022-10-22T23:55:50.695Z,14.87
2022-10-22T23:58:17.077Z,14.90
